Home > Products > Valid Products > TAF

000
FTUS44 KHUN 221139
TAFHSV
TAF
KHSV 221139Z 2212/2312 03006KT P6SM SKC
     FM221500 03008G15KT P6SM SKC
     FM222300 05004KT P6SM SKC=



000
FTUS44 KHUN 221139
TAFMSL
TAF
KMSL 221139Z 2212/2312 03006KT P6SM SKC
     FM221500 03008G15KT P6SM SKC
     FM222300 05004KT P6SM SKC=



000
FTUS44 KHUN 220537
TAFHSV
TAF
KHSV 220537Z 2206/2306 03006KT P6SM SKC
     FM221500 03010KT P6SM SKC
     FM230000 00000KT P6SM SKC=



000
FTUS44 KHUN 220537
TAFMSL
TAF
KMSL 220537Z 2206/2306 03006KT P6SM SKC
      TEMPO 2211/2213 5SM BR
     FM221500 04010KT P6SM SKC
     FM230000 00000KT P6SM SKC=



000
FTUS44 KHUN 220537
TAFHSV
TAF
KHSV 220537Z 2206/2306 03006KT P6SM SKC
     FM221500 03010KT P6SM SKC
     FM230000 00000KT P6SM SKC=



000
FTUS44 KHUN 220537
TAFMSL
TAF
KMSL 220537Z 2206/2306 03006KT P6SM SKC
      TEMPO 2211/2213 5SM BR
     FM221500 04010KT P6SM SKC
     FM230000 00000KT P6SM SKC=



000
FTUS44 KHUN 212320
TAFHSV
TAF
KHSV 212320Z 2200/2224 02004KT P6SM SKC
     FM221500 03010KT P6SM SKC=



000
FTUS44 KHUN 212320
TAFMSL
TAF
KMSL 212320Z 2200/2224 VRB03KT P6SM SKC
      TEMPO 2207/2211 1SM BR
     FM221500 04010KT P6SM SKC=



000
FTUS44 KHUN 212320
TAFHSV
TAF
KHSV 212320Z 2200/2224 02004KT P6SM SKC
     FM221500 03010KT P6SM SKC=



000
FTUS44 KHUN 212320
TAFMSL
TAF
KMSL 212320Z 2200/2224 VRB03KT P6SM SKC
      TEMPO 2207/2211 1SM BR
     FM221500 04010KT P6SM SKC=



000
FTUS44 KHUN 211721
TAFMSL
TAF
KMSL 211721Z 2118/2218 34007KT P6SM FEW035
     FM220000 VRB03KT P6SM SKC
     FM221500 04006KT P6SM SKC=



000
FTUS44 KHUN 211721
TAFHSV
TAF
KHSV 211721Z 2118/2218 34007KT P6SM FEW035
     FM220000 02004KT P6SM SKC
     FM221500 03008KT P6SM SKC=



000
FTUS44 KHUN 211140
TAFHSV
TAF
KHSV 211140Z 2112/2212 VRB03KT P6SM SCT035
     FM211400 34010KT P6SM FEW035
     FM220000 02005KT P6SM SKC=



000
FTUS44 KHUN 211140
TAFHSV
TAF
KHSV 211140Z 2112/2212 VRB03KT P6SM SCT035
     FM211400 34010KT P6SM FEW035
     FM220000 02005KT P6SM SKC=



000
FTUS44 KHUN 211140
TAFMSL
TAF
KMSL 211140Z 2112/2212 VRB03KT P6SM SCT035
     FM211400 34010KT P6SM FEW035
     FM220000 02005KT P6SM SKC=



000
FTUS44 KHUN 211140
TAFMSL
TAF
KMSL 211140Z 2112/2212 VRB03KT P6SM SCT035
     FM211400 34010KT P6SM FEW035
     FM220000 02005KT P6SM SKC=



000
FTUS44 KHUN 211140
TAFHSV
TAF
KHSV 211140Z 2112/2212 VRB03KT P6SM SCT035
     FM211400 34010KT P6SM FEW035
     FM220000 02005KT P6SM SKC=



000
FTUS44 KHUN 211140
TAFMSL
TAF
KMSL 211140Z 2112/2212 VRB03KT P6SM SCT035
     FM211400 34010KT P6SM FEW035
     FM220000 02005KT P6SM SKC=



000
FTUS44 KHUN 211140
TAFHSV
TAF
KHSV 211140Z 2112/2212 VRB03KT P6SM SCT035
     FM211400 34010KT P6SM FEW035
     FM220000 02005KT P6SM SKC=



000
FTUS44 KHUN 211140
TAFMSL
TAF
KMSL 211140Z 2112/2212 VRB03KT P6SM SCT035
     FM211400 34010KT P6SM FEW035
     FM220000 02005KT P6SM SKC=



000
FTUS44 KHUN 210646 AAA
TAFMSL
TAF AMD
KMSL 210646Z 2107/2206 00000KT 4SM BR SKC
      TEMPO 2107/2111 1/2SM FG
     FM211400 35006KT P6SM SKC
     FM220000 03003KT P6SM SKC=



000
FTUS44 KHUN 210646 AAA
TAFMSL
TAF AMD
KMSL 210646Z 2107/2206 00000KT 4SM BR SKC
      TEMPO 2107/2111 1/2SM FG
     FM211400 35006KT P6SM SKC
     FM220000 03003KT P6SM SKC=



000
FTUS44 KHUN 210520
TAFMSL
TAF
KMSL 210520Z 2106/2206 00000KT P6SM SKC
     FM210800 00000KT 2SM BR SKC
      TEMPO 2109/2113 1/2SM FG
     FM211400 35006KT P6SM SKC
     FM220000 03003KT P6SM SKC=



000
FTUS44 KHUN 210520
TAFHSV
TAF
KHSV 210520Z 2106/2206 00000KT P6SM SKC
     FM211400 34008KT P6SM SKC
     FM220000 03003KT P6SM SKC=



000
FTUS44 KHUN 210520
TAFHSV
TAF
KHSV 210520Z 2106/2206 00000KT P6SM SKC
     FM211400 34008KT P6SM SKC
     FM220000 03003KT P6SM SKC=



000
FTUS44 KHUN 210520
TAFMSL
TAF
KMSL 210520Z 2106/2206 00000KT P6SM SKC
     FM210800 00000KT 2SM BR SKC
      TEMPO 2109/2113 1/2SM FG
     FM211400 35006KT P6SM SKC
     FM220000 03003KT P6SM SKC=



000
FTUS44 KHUN 202320
TAFMSL
TAF
KMSL 202320Z 2100/2124 VRB03KT P6SM SCT150
     FM210100 00000KT P6SM SKC
     FM210400 00000KT 3SM BR SKC
      TEMPO 2109/2113 1/2SM FG
     FM211400 34006KT P6SM SKC=



000
FTUS44 KHUN 202320
TAFHSV
TAF
KHSV 202320Z 2100/2124 VRB03KT P6SM SCT150
     FM210100 VRB02KT P6SM SKC
     FM211400 34008KT P6SM SKC=



000
FTUS44 KHUN 202320
TAFHSV
TAF
KHSV 202320Z 2100/2124 VRB03KT P6SM SCT150
     FM210200 VRB02KT P6SM SKC
     FM211400 34008KT P6SM SKC=



000
FTUS44 KHUN 202320
TAFHSV
TAF
KHSV 202320Z 2100/2124 VRB03KT P6SM SCT150
     FM210100 VRB02KT P6SM SKC
     FM211400 34008KT P6SM SKC=



000
FTUS44 KHUN 202320
TAFMSL
TAF
KMSL 202320Z 2100/2124 VRB03KT P6SM SCT150
     FM210100 00000KT P6SM SKC
     FM210400 00000KT 3SM BR SKC
      TEMPO 2109/2113 1/2SM FG
     FM211400 34006KT P6SM SKC=



000
FTUS44 KHUN 201720
TAFMSL
TAF
KMSL 201720Z 2018/2118 VRB04KT P6SM FEW040 SCT120 SCT250
     FM210000 VRB02KT P6SM SCT250
     FM210600 00000KT 5SM BR SKC
     FM210800 00000KT 2SM BR SKC
      TEMPO 2109/2113 1/2SM FG
     FM211400 VRB05KT P6SM SKC=



000
FTUS44 KHUN 201720
TAFHSV
TAF
KHSV 201720Z 2018/2118 25005KT P6SM FEW040 SCT120 SCT250
     FM210100 VRB02KT P6SM SCT250
     FM211400 VRB05KT P6SM SKC=



000
FTUS44 KHUN 201720
TAFMSL
TAF
KMSL 201720Z 2018/2118 VRB04KT P6SM FEW040 SCT120 SCT250
     FM210000 VRB02KT P6SM SCT250
     FM210600 00000KT 5SM BR SKC
     FM210800 00000KT 2SM BR SKC
      TEMPO 2109/2113 1/2SM FG
     FM211400 VRB05KT P6SM SKC=



000
FTUS44 KHUN 201720
TAFHSV
TAF
KHSV 201720Z 2018/2118 25005KT P6SM FEW040 SCT120 SCT250
     FM210100 VRB02KT P6SM SCT250
     FM211400 VRB05KT P6SM SKC=



000
FTUS44 KHUN 201512 AAA
TAFMSL
TAF AMD
KMSL 201512Z 2015/2112 00000KT P6SM SKC
      TEMPO 2015/2016 5SM BR SCT002
     FM201700 27007KT P6SM SCT070 BKN200
     FM210000 VRB02KT P6SM SCT250=



000
FTUS44 KHUN 201124
TAFMSL
TAF
KMSL 201124Z 2012/2112 00000KT 1SM BR OVC001
      TEMPO 2012/2014 1/2SM FG
     FM201400 27007KT P6SM SCT070 BKN200
     FM210000 VRB02KT P6SM SCT250=



000
FTUS44 KHUN 201124
TAFHSV
TAF
KHSV 201124Z 2012/2112 VRB03KT P6SM SKC
     FM201500 25005KT P6SM SCT090 BKN250
     FM210100 VRB02KT P6SM SCT250=



000
FTUS44 KHUN 201124
TAFHSV
TAF
KHSV 201124Z 2012/2112 VRB03KT P6SM SKC
     FM201500 25005KT P6SM SCT090 BKN250
     FM210100 VRB02KT P6SM SCT250=



000
FTUS44 KHUN 201124
TAFMSL
TAF
KMSL 201124Z 2012/2112 00000KT 1SM BR OVC001
      TEMPO 2012/2014 1/2SM FG
     FM201400 27007KT P6SM SCT070 BKN200
     FM210000 VRB02KT P6SM SCT250=



000
FTUS44 KHUN 200903 AAC
TAFMSL
TAF AMD
KMSL 200903Z 2009/2106 00000KT 1SM BR SCT001
      TEMPO 2009/2013 1/4SM FG VV001
     FM201300 00000KT 5SM BR SCT002
     FM201400 26006KT P6SM SCT120 BKN200
     FM210000 27003KT P6SM SKC=



000
FTUS44 KHUN 200903 AAC
TAFMSL
TAF AMD
KMSL 200903Z 2009/2106 00000KT 1SM BR SCT001
      TEMPO 2009/2013 1/4SM FG VV001
     FM201300 00000KT 5SM BR SCT002
     FM201400 26006KT P6SM SCT120 BKN200
     FM210000 27003KT P6SM SKC=



000
FTUS44 KHUN 200753 AAB
TAFMSL
TAF AMD
KMSL 200753Z 2008/2106 00000KT 3SM BR SCT002
      TEMPO 2008/2012 1SM BR BKN002
     FM201200 00000KT 4SM BR SCT001
     FM201400 26006KT P6SM SCT120 BKN200
     FM210000 27003KT P6SM SKC=



000
FTUS44 KHUN 200753 AAB
TAFMSL
TAF AMD
KMSL 200753Z 2008/2106 00000KT 3SM BR SCT002
      TEMPO 2008/2012 1SM BR BKN002
     FM201200 00000KT 4SM BR SCT001
     FM201400 26006KT P6SM SCT120 BKN200
     FM210000 27003KT P6SM SKC=



000
FTUS44 KHUN 200753 AAB
TAFMSL
TAF AMD
KMSL 200753Z 2008/2106 00000KT 3SM BR SCT002
      TEMPO 2008/2012 1SM BR BKN002
     FM201200 00000KT 4SM BR SCT001
     FM201400 26006KT P6SM SCT120 BKN200
     FM210000 27003KT P6SM SKC=



000
FTUS44 KHUN 200753 AAB
TAFMSL
TAF AMD
KMSL 200753Z 2008/2106 00000KT 3SM BR SCT002
      TEMPO 2008/2012 1SM BR BKN002
     FM201200 00000KT 4SM BR SCT001
     FM201400 26006KT P6SM SCT120 BKN200
     FM210000 27003KT P6SM SKC=



000
FTUS44 KHUN 200725 AAA
TAFMSL
TAF AMD
KMSL 200725Z 2007/2106 00000KT 6SM BR SKC
      TEMPO 2007/2010 3SM BR
     FM201000 00000KT 5SM BR SKC
      TEMPO 2010/2013 2SM BR SCT001
     FM201400 26006KT P6SM SCT120 BKN200
     FM210000 27003KT P6SM SKC=



000
FTUS44 KHUN 200725 AAA
TAFMSL
TAF AMD
KMSL 200725Z 2007/2106 00000KT 6SM BR SKC
      TEMPO 2007/2010 3SM BR
     FM201000 00000KT 5SM BR SKC
      TEMPO 2010/2013 2SM BR SCT001
     FM201400 26006KT P6SM SCT120 BKN200
     FM210000 27003KT P6SM SKC=



000
FTUS44 KHUN 200520
TAFHSV
TAF
KHSV 200520Z 2006/2106 13003KT P6SM SKC
      TEMPO 2010/2013 5SM BR
     FM201600 24006KT P6SM SCT120 BKN200
     FM210000 27003KT P6SM SKC=



000
FTUS44 KHUN 200520
TAFHSV
TAF
KHSV 200520Z 2006/2106 13003KT P6SM SKC
      TEMPO 2010/2013 5SM BR
     FM201600 24006KT P6SM SCT120 BKN200
     FM210000 27003KT P6SM SKC=



000
FTUS44 KHUN 200520
TAFMSL
TAF
KMSL 200520Z 2006/2106 00000KT P6SM SKC
      TEMPO 2010/2013 4SM BR
     FM201600 26006KT P6SM SCT120 BKN200
     FM210000 27003KT P6SM SKC=



000
FTUS44 KHUN 200520
TAFHSV
TAF
KHSV 200520Z 2006/2106 13003KT P6SM SKC
      TEMPO 2010/2013 5SM BR
     FM201600 24006KT P6SM SCT120 BKN200
     FM210000 27003KT P6SM SKC=



000
FTUS44 KHUN 192320
TAFHSV
TAF
KHSV 192320Z 2000/2024 04003KT P6SM SCT250
      TEMPO 2010/2013 5SM BR
     FM201600 24006KT P6SM SCT120 BKN200=



000
FTUS44 KHUN 192320
TAFHSV
TAF
KHSV 192320Z 2000/2024 04003KT P6SM SCT250
      TEMPO 2010/2013 5SM BR
     FM201600 24006KT P6SM SCT120 BKN200=



000
FTUS44 KHUN 192320
TAFMSL
TAF
KMSL 192320Z 2000/2024 00000KT P6SM SKC
      TEMPO 2010/2013 4SM BR
     FM201600 26006KT P6SM SCT120=



000
FTUS44 KHUN 192320
TAFHSV
TAF
KHSV 192320Z 2000/2024 04003KT P6SM SCT250
      TEMPO 2010/2013 5SM BR
     FM201600 24006KT P6SM SCT120=



000
FTUS44 KHUN 192320
TAFMSL
TAF
KMSL 192320Z 2000/2024 00000KT P6SM SKC
      TEMPO 2010/2013 4SM BR
     FM201600 26006KT P6SM SCT120 BKN200=



000
FTUS44 KHUN 192320
TAFHSV
TAF
KHSV 192320Z 2000/2024 04003KT P6SM SCT250
      TEMPO 2010/2013 5SM BR
     FM201600 24006KT P6SM SCT120=



000
FTUS44 KHUN 192320
TAFHSV
TAF
KHSV 192320Z 2000/2024 04003KT P6SM SCT250
      TEMPO 2010/2013 5SM BR
     FM201600 24006KT P6SM SCT120=



000
FTUS44 KHUN 192320
TAFHSV
TAF
KHSV 192320Z 2000/2024 04003KT P6SM SCT250
      TEMPO 2010/2013 5SM BR
     FM201600 24006KT P6SM SCT120=



000
FTUS44 KHUN 192320
TAFMSL
TAF
KMSL 192320Z 2000/2024 00000KT P6SM SKC
      TEMPO 2010/2013 4SM BR
     FM201600 26006KT P6SM SCT120=



000
FTUS44 KHUN 192320
TAFMSL
TAF
KMSL 192320Z 2000/2024 00000KT P6SM SKC
      TEMPO 2010/2013 4SM BR
     FM201600 26006KT P6SM SCT120 BKN200=



000
FTUS44 KHUN 192320
TAFHSV
TAF
KHSV 192320Z 2000/2024 04003KT P6SM SCT250
      TEMPO 2010/2013 5SM BR
     FM201600 24006KT P6SM SCT120 BKN200=



000
FTUS44 KHUN 191720
TAFMSL
TAF
KMSL 191720Z 1918/2018 06005KT P6SM SCT250
     FM200000 VRB02KT P6SM SKC
     FM201500 VRB03KT P6SM SCT100 BKN250=



000
FTUS44 KHUN 191720
TAFHSV
TAF
KHSV 191720Z 1918/2018 05005KT P6SM SCT250
     FM200000 VRB03KT P6SM SKC
     FM201600 VRB03KT P6SM SCT100 BKN250=



000
FTUS44 KHUN 191720
TAFMSL
TAF
KMSL 191720Z 1918/2018 06005KT P6SM SCT250
     FM200000 VRB02KT P6SM SKC
     FM201500 VRB03KT P6SM SCT100 BKN250=



000
FTUS44 KHUN 191720
TAFHSV
TAF
KHSV 191720Z 1918/2018 05005KT P6SM SCT250
     FM200000 VRB03KT P6SM SKC
     FM201600 VRB03KT P6SM SCT100 BKN250=



    US Dept of Commerce
    National Oceanic and Atmospheric Administration
    National Weather Service
    1325 East West Highway
    Silver Spring, MD 20910
    Page Author: NWS Internet Services Team
Disclaimer
Information Quality
Credits
Glossary
Privacy Policy
Freedom of Information Act (FOIA)
About Us
Career Opportunities